Time;durP1;ratioP1;P1;durP2;ratioP2;P2;SDS_P1;SDS_P2;PMS_P1;PMS_P2;Temp;Humidity;BMP_temperature;BMP_pressure;BME280_temperature;BME280_humidity;BME280_pressure;Samples;Min_cycle;Max_cycle;Signal;HPM_P1;HPM_P2
2021/12/11 15:58:52;;;;;;;7.82;4.35;;;;;;;;;;5044172;27;20734;-57
2021/12/11 16:01:20;;;;;;;5.78;3.92;;;;;;;;;;4923650;27;20045;-58
2021/12/11 16:03:45;;;;;;;4.28;3.28;;;;;;;;;;4938100;27;20069;-56
2021/12/11 16:06:16;;;;;;;4.25;3.38;;;;;;;;;;5053764;27;20593;-58
2021/12/11 16:08:41;;;;;;;;;;;;;;;;;;5090361;28;20113;-58
2021/12/11 16:11:06;;;;;;;4.93;3.35;;;;;;;;;;5104201;27;19995;-56
2021/12/11 16:13:32;;;;;;;4.28;3.88;;;;;;;;;;5090648;28;20067;-57
2021/12/11 16:15:57;;;;;;;5.60;3.75;;;;;;;;;;5093042;28;20027;-54
2021/12/11 16:18:23;;;;;;;8.50;4.28;;;;;;;;;;5089578;28;20036;-53
2021/12/11 16:20:52;;;;;;;4.43;3.17;;;;;;;;;;5095498;27;20043;-53
2021/12/11 16:23:19;;;;;;;7.53;4.15;;;;;;;;;;5094306;27;20036;-53
2021/12/11 16:25:44;;;;;;;5.88;3.58;;;;;;;;;;5090794;28;20039;-52
2021/12/11 16:28:11;;;;;;;5.53;4.05;;;;;;;;;;5095477;28;20029;-53
2021/12/11 16:30:37;;;;;;;11.30;4.30;;;;;;;;;;5090625;28;20401;-53
2021/12/11 16:33:03;;;;;;;5.57;3.92;;;;;;;;;;5088367;28;20081;-54
2021/12/11 16:35:31;;;;;;;5.10;3.55;;;;;;;;;;5096335;27;20032;-52
2021/12/11 16:37:57;;;;;;;6.72;3.85;;;;;;;;;;5088656;28;20032;-53
2021/12/11 16:40:25;;;;;;;8.38;4.15;;;;;;;;;;5087413;28;20025;-54
2021/12/11 16:43:00;;;;;;;5.63;4.80;;;;;;;;;;5088655;28;20036;-53
2021/12/11 16:45:25;;;;;;;7.65;4.45;;;;;;;;;;5091179;28;20040;-53
2021/12/11 16:47:52;;;;;;;6.55;4.13;;;;;;;;;;5086097;28;20059;-53
2021/12/11 16:50:19;;;;;;;6.20;3.17;;;;;;;;;;5083943;28;20057;-53
2021/12/11 16:52:44;;;;;;;5.55;3.58;;;;;;;;;;5087203;27;20510;-52
2021/12/11 16:55:10;;;;;;;5.97;3.13;;;;;;;;;;5085477;28;20108;-53
2021/12/11 16:57:35;;;;;;;5.50;3.85;;;;;;;;;;5084534;28;20044;-55
2021/12/11 17:00:03;;;;;;;8.73;4.47;;;;;;;;;;5084659;28;20033;-53
2021/12/11 17:02:29;;;;;;;10.07;5.38;;;;;;;;;;5088526;28;20144;-55
2021/12/11 17:04:54;;;;;;;12.07;5.72;;;;;;;;;;5082527;28;20067;-55
2021/12/11 17:07:20;;;;;;;15.52;5.63;;;;;;;;;;5089897;28;20069;-55
2021/12/11 17:09:47;;;;;;;11.85;5.70;;;;;;;;;;5084958;27;20067;-55
2021/12/11 17:12:17;;;;;;;14.65;8.57;;;;;;;;;;5082566;28;20511;-54
2021/12/11 17:14:43;;;;;;;16.70;7.45;;;;;;;;;;5077436;28;20280;-55
2021/12/11 17:17:08;;;;;;;10.02;6.68;;;;;;;;;;5057786;28;20055;-54
2021/12/11 17:19:33;;;;;;;14.18;7.50;;;;;;;;;;5052845;28;20136;-55
2021/12/11 17:22:00;;;;;;;16.77;8.48;;;;;;;;;;5054582;28;20112;-56
2021/12/11 17:24:30;;;;;;;14.65;7.70;;;;;;;;;;5072615;28;20123;-55
2021/12/11 17:26:55;;;;;;;13.67;6.40;;;;;;;;;;5071992;28;20047;-56
2021/12/11 17:29:24;;;;;;;13.45;7.68;;;;;;;;;;5071958;28;20033;-55
2021/12/11 17:31:49;;;;;;;13.32;7.22;;;;;;;;;;5072599;28;20046;-56
2021/12/11 17:34:15;;;;;;;11.13;6.68;;;;;;;;;;5079201;28;20016;-55
2021/12/11 17:36:41;;;;;;;12.25;7.28;;;;;;;;;;5092306;28;20024;-55
2021/12/11 17:39:07;;;;;;;10.88;6.70;;;;;;;;;;5091054;28;20043;-52
2021/12/11 17:41:32;;;;;;;11.60;6.63;;;;;;;;;;5074105;28;20028;-47
2021/12/11 17:43:57;;;;;;;9.82;5.90;;;;;;;;;;5079708;28;20035;-52
2021/12/11 17:46:24;;;;;;;11.15;6.60;;;;;;;;;;5090429;28;20562;-52
2021/12/11 17:48:51;;;;;;;10.98;6.32;;;;;;;;;;5073476;28;20040;-56
2021/12/11 17:51:17;;;;;;;11.00;5.60;;;;;;;;;;5072650;28;20384;-58
2021/12/11 17:53:42;;;;;;;7.45;4.72;;;;;;;;;;5081585;28;20029;-57
2021/12/11 17:56:09;;;;;;;8.95;4.97;;;;;;;;;;5034979;28;20797;-57
2021/12/11 17:58:39;;;;;;;8.18;4.55;;;;;;;;;;5071318;28;20044;-54
2021/12/11 18:01:20;;;;;;;8.30;4.20;;;;;;;;;;5051897;28;20116;-57
2021/12/11 18:03:48;;;;;;;12.15;4.32;;;;;;;;;;5071362;28;20032;-57
2021/12/11 18:06:16;;;;;;;5.75;4.03;;;;;;;;;;5083811;28;20032;-57
2021/12/11 18:08:42;;;;;;;7.30;4.45;;;;;;;;;;5098442;27;20044;-56
2021/12/11 18:11:14;;;;;;;5.00;3.75;;;;;;;;;;5074737;28;20035;-57
2021/12/11 18:13:42;;;;;;;7.32;4.20;;;;;;;;;;5060027;28;20508;-56
2021/12/11 18:16:16;;;;;;;7.00;4.38;;;;;;;;;;5079780;28;20127;-56
2021/12/11 18:18:46;;;;;;;7.65;3.95;;;;;;;;;;5073251;28;20076;-56
2021/12/11 18:21:14;;;;;;;5.80;3.13;;;;;;;;;;5071138;28;20039;-57
2021/12/11 18:23:39;;;;;;;7.53;3.88;;;;;;;;;;5073997;28;20025;-56
2021/12/11 18:26:07;;;;;;;8.40;3.80;;;;;;;;;;5079595;28;20050;-56
2021/12/11 18:28:33;;;;;;;7.32;3.88;;;;;;;;;;5080033;28;20032;-57
2021/12/11 18:30:59;;;;;;;5.30;3.65;;;;;;;;;;5077108;28;20413;-58
2021/12/11 18:33:25;;;;;;;4.05;2.80;;;;;;;;;;5079773;28;20059;-58
2021/12/11 18:35:52;;;;;;;5.82;3.00;;;;;;;;;;5076549;28;20024;-57
2021/12/11 18:38:18;;;;;;;7.00;3.30;;;;;;;;;;5077028;28;20044;-57
2021/12/11 18:40:47;;;;;;;5.75;3.28;;;;;;;;;;5076612;28;20093;-55
2021/12/11 18:43:14;;;;;;;7.50;2.45;;;;;;;;;;5077179;28;20551;-56
2021/12/11 18:45:42;;;;;;;6.38;3.10;;;;;;;;;;5076999;28;20043;-56
2021/12/11 18:48:13;;;;;;;5.68;2.75;;;;;;;;;;5076996;28;20028;-56
2021/12/11 18:50:40;;;;;;;4.10;2.80;;;;;;;;;;5076571;28;20147;-56
2021/12/11 18:53:08;;;;;;;6.38;3.38;;;;;;;;;;5075559;28;20364;-56
2021/12/11 18:55:45;;;;;;;4.28;2.83;;;;;;;;;;5078820;28;20020;-57
2021/12/11 18:58:12;;;;;;;3.60;2.75;;;;;;;;;;5050975;28;20041;-55
2021/12/11 19:00:40;;;;;;;5.72;2.53;;;;;;;;;;5073321;28;20056;-57
2021/12/11 19:03:06;;;;;;;3.88;2.58;;;;;;;;;;5078200;28;20116;-56
2021/12/11 19:05:37;;;;;;;4.53;2.45;;;;;;;;;;5076489;28;20112;-57
2021/12/11 19:08:04;;;;;;;4.78;3.10;;;;;;;;;;5093797;28;20017;-57
2021/12/11 19:10:29;;;;;;;7.25;2.90;;;;;;;;;;5073547;28;20032;-57
2021/12/11 19:12:55;;;;;;;2.88;2.28;;;;;;;;;;5057290;28;20036;-57
2021/12/11 19:15:23;;;;;;;4.70;2.83;;;;;;;;;;5058986;28;20086;-59
2021/12/11 19:17:50;;;;;;;3.80;2.70;;;;;;;;;;5059914;28;20036;-58
2021/12/11 19:20:17;;;;;;;3.85;2.80;;;;;;;;;;5057955;28;20033;-58
2021/12/11 19:22:42;;;;;;;3.80;2.80;;;;;;;;;;5057016;28;20067;-55
2021/12/11 19:25:09;;;;;;;4.18;2.70;;;;;;;;;;5065462;28;20492;-54
2021/12/11 19:27:37;;;;;;;4.03;2.47;;;;;;;;;;5052949;28;20082;-53
2021/12/11 19:30:15;;;;;;;4.07;3.13;;;;;;;;;;5055503;28;20106;-57
2021/12/11 19:32:41;;;;;;;4.68;2.88;;;;;;;;;;5051722;28;20044;-55
2021/12/11 19:35:07;;;;;;;4.05;2.63;;;;;;;;;;5051521;28;20021;-53
2021/12/11 19:37:32;;;;;;;4.50;2.83;;;;;;;;;;5052341;28;20182;-54
2021/12/11 19:39:59;;;;;;;4.22;2.55;;;;;;;;;;5054585;28;20457;-56
2021/12/11 19:42:25;;;;;;;4.85;3.03;;;;;;;;;;5051653;28;20385;-55
2021/12/11 19:44:51;;;;;;;4.07;2.75;;;;;;;;;;5051723;28;20048;-54
2021/12/11 19:47:17;;;;;;;4.80;2.65;;;;;;;;;;5052435;28;20038;-53
2021/12/11 19:49:43;;;;;;;5.82;2.75;;;;;;;;;;5052751;28;20461;-54
2021/12/11 19:52:10;;;;;;;4.32;2.90;;;;;;;;;;5051930;28;20028;-55
2021/12/11 19:54:37;;;;;;;3.63;2.67;;;;;;;;;;5055561;28;20063;-56
2021/12/11 19:57:03;;;;;;;5.28;2.95;;;;;;;;;;5051483;28;20068;-57
2021/12/11 19:59:38;;;;;;;4.22;2.80;;;;;;;;;;5051738;28;20025;-55
2021/12/11 20:02:06;;;;;;;4.53;2.67;;;;;;;;;;5058092;28;20095;-53
2021/12/11 20:04:31;;;;;;;5.90;3.13;;;;;;;;;;5054564;28;20128;-53
2021/12/11 20:06:57;;;;;;;3.88;2.88;;;;;;;;;;5032706;28;20494;-54
2021/12/11 20:09:25;;;;;;;6.13;3.30;;;;;;;;;;5038498;28;20037;-53
2021/12/11 20:11:54;;;;;;;4.05;2.95;;;;;;;;;;5032132;28;20079;-54
2021/12/11 20:14:20;;;;;;;3.90;2.85;;;;;;;;;;5031794;28;20034;-53
2021/12/11 20:16:46;;;;;;;2.95;2.38;;;;;;;;;;5042674;28;20082;-52
2021/12/11 20:19:16;;;;;;;4.43;2.80;;;;;;;;;;5040533;28;20022;-54
2021/12/11 20:21:46;;;;;;;3.90;2.83;;;;;;;;;;5035166;28;20034;-53
2021/12/11 20:24:12;;;;;;;;;;;;;;;;;;5031588;28;20026;-54
2021/12/11 20:26:40;;;;;;;7.90;3.13;;;;;;;;;;5031211;28;19913;-54
2021/12/11 20:29:09;;;;;;;5.03;2.85;;;;;;;;;;5031436;28;20506;-53
2021/12/11 20:31:37;;;;;;;3.22;2.53;;;;;;;;;;5046532;28;20057;-55
2021/12/11 20:34:02;;;;;;;5.05;3.25;;;;;;;;;;5031523;28;20060;-52
2021/12/11 20:36:27;;;;;;;4.72;2.88;;;;;;;;;;5035611;28;20156;-53
2021/12/11 20:38:54;;;;;;;3.15;2.65;;;;;;;;;;5030669;28;20038;-53
2021/12/11 20:41:31;;;;;;;6.32;3.22;;;;;;;;;;5031908;28;20084;-54
2021/12/11 20:43:58;;;;;;;8.27;3.45;;;;;;;;;;5032385;28;20038;-53
2021/12/11 20:46:23;;;;;;;4.15;2.72;;;;;;;;;;5035523;28;20025;-53
2021/12/11 20:48:48;;;;;;;5.53;3.22;;;;;;;;;;5035047;28;20387;-53
2021/12/11 20:51:17;;;;;;;7.05;3.80;;;;;;;;;;5039194;28;20018;-53
2021/12/11 20:53:47;;;;;;;5.97;3.25;;;;;;;;;;5034271;28;20084;-53
2021/12/11 20:56:12;;;;;;;4.65;2.63;;;;;;;;;;5040170;28;20098;-53
2021/12/11 20:58:38;;;;;;;10.80;3.55;;;;;;;;;;5035985;28;20480;-54
2021/12/11 21:01:06;;;;;;;4.18;3.00;;;;;;;;;;5047078;28;20025;-54
2021/12/11 21:03:33;;;;;;;5.05;2.90;;;;;;;;;;5057234;28;20037;-53
2021/12/11 21:06:05;;;;;;;4.45;3.38;;;;;;;;;;5050085;28;20017;-51
2021/12/11 21:08:30;;;;;;;6.50;3.30;;;;;;;;;;5043224;28;20037;-48
2021/12/11 21:10:58;;;;;;;4.72;2.90;;;;;;;;;;5045817;28;20347;-51
2021/12/11 21:13:28;;;;;;;5.30;3.25;;;;;;;;;;5035962;28;20037;-53
2021/12/11 21:16:00;;;;;;;7.50;3.60;;;;;;;;;;5052323;28;20033;-53
2021/12/11 21:18:27;;;;;;;6.53;4.00;;;;;;;;;;5054943;28;20409;-54
2021/12/11 21:20:55;;;;;;;8.38;3.80;;;;;;;;;;5067282;28;20108;-56
2021/12/11 21:23:24;;;;;;;5.10;3.40;;;;;;;;;;5054744;28;20048;-54
2021/12/11 21:25:52;;;;;;;8.35;3.60;;;;;;;;;;5054156;28;20032;-53
2021/12/11 21:28:19;;;;;;;10.93;4.05;;;;;;;;;;5054683;28;20037;-51
2021/12/11 21:30:47;;;;;;;6.05;3.90;;;;;;;;;;5054800;28;20021;-49
2021/12/11 21:33:16;;;;;;;9.55;4.25;;;;;;;;;;5054715;28;20477;-53
2021/12/11 21:35:42;;;;;;;9.38;3.97;;;;;;;;;;5054323;28;20040;-58
2021/12/11 21:38:08;;;;;;;8.35;4.40;;;;;;;;;;5060982;28;20115;-55
2021/12/11 21:40:33;;;;;;;8.75;4.70;;;;;;;;;;5075490;28;20499;-53
2021/12/11 21:43:00;;;;;;;7.50;3.90;;;;;;;;;;5054664;28;20124;-55
2021/12/11 21:45:27;;;;;;;8.95;4.25;;;;;;;;;;5054563;28;20806;-54
2021/12/11 21:47:58;;;;;;;10.68;4.35;;;;;;;;;;5054225;28;20087;-55
2021/12/11 21:50:44;;;;;;;6.85;4.07;;;;;;;;;;5068882;28;20033;-50
2021/12/11 21:53:09;;;;;;;8.65;3.95;;;;;;;;;;5004928;28;20034;-51
2021/12/11 21:55:35;;;;;;;5.82;3.70;;;;;;;;;;5011011;28;20072;-51
2021/12/11 21:58:03;;;;;;;9.05;3.70;;;;;;;;;;5008212;28;20130;-50
2021/12/11 22:00:30;;;;;;;11.57;4.20;;;;;;;;;;5011101;28;20045;-49
2021/12/11 22:02:58;;;;;;;12.38;4.72;;;;;;;;;;5011079;28;20113;-50
2021/12/11 22:05:26;;;;;;;8.23;4.20;;;;;;;;;;5009869;28;20473;-51
2021/12/11 22:07:52;;;;;;;10.52;4.47;;;;;;;;;;5007947;28;20508;-51
2021/12/11 22:10:22;;;;;;;9.40;4.75;;;;;;;;;;5011070;28;20522;-50
2021/12/11 22:12:48;;;;;;;7.30;4.57;;;;;;;;;;5011208;28;20120;-52
2021/12/11 22:15:27;;;;;;;10.55;5.47;;;;;;;;;;5011134;28;20169;-51
2021/12/11 22:17:52;;;;;;;9.60;4.30;;;;;;;;;;5008213;28;20569;-50
2021/12/11 22:20:21;;;;;;;10.52;4.10;;;;;;;;;;5010467;28;20154;-52
2021/12/11 22:22:47;;;;;;;19.58;5.18;;;;;;;;;;5011150;28;20045;-52
2021/12/11 22:25:17;;;;;;;11.10;4.82;;;;;;;;;;5008951;28;20026;-51
2021/12/11 22:27:43;;;;;;;11.50;4.23;;;;;;;;;;5009208;28;20120;-47
2021/12/11 22:30:14;;;;;;;11.40;4.28;;;;;;;;;;5019777;28;20520;-51
2021/12/11 22:32:39;;;;;;;11.00;4.78;;;;;;;;;;5059735;28;20554;-48
2021/12/11 22:35:06;;;;;;;15.82;3.83;;;;;;;;;;5078318;28;20025;-51
2021/12/11 22:37:33;;;;;;;7.80;3.90;;;;;;;;;;5052416;28;20027;-50
2021/12/11 22:40:01;;;;;;;6.80;3.85;;;;;;;;;;5072739;28;20111;-52
2021/12/11 22:42:29;;;;;;;5.80;4.07;;;;;;;;;;5073200;28;20048;-52
2021/12/11 22:44:55;;;;;;;9.93;4.50;;;;;;;;;;5072878;28;20451;-53
2021/12/11 22:47:31;;;;;;;10.45;4.68;;;;;;;;;;5068918;28;20056;-54
2021/12/11 22:50:06;;;;;;;8.07;4.50;;;;;;;;;;5070785;28;20021;-54
2021/12/11 22:52:31;;;;;;;7.28;4.40;;;;;;;;;;5069211;28;20449;-53
2021/12/11 22:54:59;;;;;;;8.52;4.13;;;;;;;;;;5072425;28;20021;-55
2021/12/11 22:57:34;;;;;;;8.80;4.03;;;;;;;;;;5074469;28;20043;-54
2021/12/11 23:00:00;;;;;;;9.00;4.32;;;;;;;;;;5072582;28;20124;-54
2021/12/11 23:02:33;;;;;;;11.15;4.28;;;;;;;;;;5071908;28;20020;-54
2021/12/11 23:05:09;;;;;;;6.60;4.13;;;;;;;;;;5079687;27;20027;-55
2021/12/11 23:07:43;;;;;;;8.95;4.43;;;;;;;;;;5078602;28;20025;-54
2021/12/11 23:10:15;;;;;;;10.57;4.10;;;;;;;;;;5082098;28;20028;-54
2021/12/11 23:12:43;;;;;;;9.00;4.80;;;;;;;;;;5082969;28;20499;-54
2021/12/11 23:15:29;;;;;;;9.75;3.95;;;;;;;;;;5081664;28;20020;-54
2021/12/11 23:17:56;;;;;;;10.73;4.65;;;;;;;;;;5027169;28;20594;-54
2021/12/11 23:20:34;;;;;;;8.40;4.60;;;;;;;;;;5018500;28;20109;-54
2021/12/11 23:23:11;;;;;;;7.35;4.55;;;;;;;;;;5027034;28;20080;-54
2021/12/11 23:25:36;;;;;;;11.18;5.40;;;;;;;;;;5031457;28;20120;-53
2021/12/11 23:28:09;;;;;;;7.93;4.65;;;;;;;;;;5030240;28;20128;-53
2021/12/11 23:30:42;;;;;;;9.90;4.82;;;;;;;;;;5030356;28;20052;-55
2021/12/11 23:33:10;;;;;;;7.72;4.15;;;;;;;;;;5029928;28;20038;-54
2021/12/11 23:35:49;;;;;;;9.70;4.65;;;;;;;;;;5030453;28;20109;-54
2021/12/11 23:38:17;;;;;;;9.27;4.30;;;;;;;;;;5029882;28;20416;-54
2021/12/11 23:40:45;;;;;;;9.50;4.13;;;;;;;;;;5030520;28;20037;-54
2021/12/11 23:43:19;;;;;;;8.30;4.45;;;;;;;;;;5030785;28;20029;-53
2021/12/11 23:45:47;;;;;;;7.18;4.05;;;;;;;;;;5030192;28;20049;-54
2021/12/11 23:48:18;;;;;;;8.65;4.20;;;;;;;;;;5030010;28;20453;-54
2021/12/11 23:50:49;;;;;;;11.75;4.75;;;;;;;;;;5029473;28;20521;-54
2021/12/11 23:53:14;;;;;;;;;;;;;;;;;;5028568;28;20095;-54
2021/12/11 23:55:42;;;;;;;9.18;3.85;;;;;;;;;;5057907;28;19909;-54
2021/12/11 23:58:08;;;;;;;8.18;4.05;;;;;;;;;;5070482;28;20424;-56
